SGAS/ASU METAR and TAF weather

Enter ICAO airport designator
Station Type Date Time Source
SGAS METAR 2019/06/19 00:00 UTC NOAA

SGAS 190000Z 20010KT 160V230 9999 OVC005 17/16 Q1016


Station Type Date Time Source
SGAS Decoded METAR 2019/06/19 00:00 UTC NOAA

Asuncion / Aeropuerto, Paraguay (SGAS) 25-16S 057-38W 101M
Jun 18, 2019 - 08:00 PM EDT / 2019.06.19 0000 UTC
Wind: from the SSW (200 degrees) at 12 MPH (10 KT) (direction variable):0
Visibility: greater than 7 mile(s):0
Sky conditions: overcast
Temperature: 62 F (17 C)
Dew Point: 60 F (16 C)
Relative Humidity: 93%
Pressure (altimeter): 30.00 in. Hg (1016 hPa)
ob: SGAS 190000Z 20010KT 160V230 9999 OVC005 17/16 Q1016
cycle: 0

Station Type Date Time Source
SGAS TAF 2019/06/18 18:12 UTC NOAA

TAF TAF SGAS 181710Z 1818/1918 22008KT 9999 BKN020 TX23/1819Z TN15/1909Z
TEMPO 1820/1822 21008KT 7000 DZ OVC015 PROB40 1905/1907 2000 BR OVC008
BECMG 1912/1915 18008KT 6000 RADZ OVC010

Example: see airport list